sensor_id;sensor_type;location;lat;lon;timestamp;temperature;humidity
47338;DHT22;33069;51.970;5.892;2023-12-20T00:02:16;6.20;89.10
47338;DHT22;33069;51.970;5.892;2023-12-20T00:05:02;6.20;89.20
47338;DHT22;33069;51.970;5.892;2023-12-20T00:07:48;6.30;89.20
47338;DHT22;33069;51.970;5.892;2023-12-20T00:10:34;6.30;89.10
47338;DHT22;33069;51.970;5.892;2023-12-20T00:13:20;6.20;89.10
47338;DHT22;33069;51.970;5.892;2023-12-20T00:16:06;6.30;89.10
47338;DHT22;33069;51.970;5.892;2023-12-20T00:18:52;6.20;89.10
47338;DHT22;33069;51.970;5.892;2023-12-20T00:21:38;6.20;89.20
47338;DHT22;33069;51.970;5.892;2023-12-20T00:24:24;6.20;89.20
47338;DHT22;33069;51.970;5.892;2023-12-20T00:27:10;6.20;89.40
47338;DHT22;33069;51.970;5.892;2023-12-20T00:29:56;6.20;89.40
47338;DHT22;33069;51.970;5.892;2023-12-20T00:32:42;6.20;89.40
47338;DHT22;33069;51.970;5.892;2023-12-20T00:35:34;6.20;89.40
47338;DHT22;33069;51.970;5.892;2023-12-20T00:38:20;6.20;89.30
47338;DHT22;33069;51.970;5.892;2023-12-20T00:41:06;6.10;89.30
47338;DHT22;33069;51.970;5.892;2023-12-20T00:43:51;6.00;89.30
47338;DHT22;33069;51.970;5.892;2023-12-20T00:46:37;6.10;89.40
47338;DHT22;33069;51.970;5.892;2023-12-20T00:49:23;6.00;89.40
47338;DHT22;33069;51.970;5.892;2023-12-20T00:52:09;6.00;89.40
47338;DHT22;33069;51.970;5.892;2023-12-20T00:54:55;6.00;89.40
47338;DHT22;33069;51.970;5.892;2023-12-20T00:57:41;6.00;89.40
47338;DHT22;33069;51.970;5.892;2023-12-20T01:00:27;5.90;89.40
47338;DHT22;33069;51.970;5.892;2023-12-20T01:03:13;5.80;89.40
47338;DHT22;33069;51.970;5.892;2023-12-20T01:06:00;5.80;89.40
47338;DHT22;33069;51.970;5.892;2023-12-20T01:08:46;5.80;89.40
47338;DHT22;33069;51.970;5.892;2023-12-20T01:11:32;5.80;89.40
47338;DHT22;33069;51.970;5.892;2023-12-20T01:14:18;5.80;89.40
47338;DHT22;33069;51.970;5.892;2023-12-20T01:17:05;5.70;89.40
47338;DHT22;33069;51.970;5.892;2023-12-20T01:19:51;5.70;89.50
47338;DHT22;33069;51.970;5.892;2023-12-20T01:22:37;5.70;89.40
47338;DHT22;33069;51.970;5.892;2023-12-20T01:25:23;5.70;89.40
47338;DHT22;33069;51.970;5.892;2023-12-20T01:28:09;5.70;89.40
47338;DHT22;33069;51.970;5.892;2023-12-20T01:30:55;5.70;89.30
47338;DHT22;33069;51.970;5.892;2023-12-20T01:33:40;5.70;89.30
47338;DHT22;33069;51.970;5.892;2023-12-20T01:36:26;5.70;89.30
47338;DHT22;33069;51.970;5.892;2023-12-20T01:39:12;5.70;89.20
47338;DHT22;33069;51.970;5.892;2023-12-20T01:41:58;5.70;89.20
47338;DHT22;33069;51.970;5.892;2023-12-20T01:44:44;5.60;89.10
47338;DHT22;33069;51.970;5.892;2023-12-20T01:47:30;5.70;89.20
47338;DHT22;33069;51.970;5.892;2023-12-20T01:50:16;5.60;89.00
47338;DHT22;33069;51.970;5.892;2023-12-20T01:53:04;5.60;89.00
47338;DHT22;33069;51.970;5.892;2023-12-20T01:55:52;5.60;88.90
47338;DHT22;33069;51.970;5.892;2023-12-20T01:58:46;5.60;88.80
47338;DHT22;33069;51.970;5.892;2023-12-20T02:01:33;5.70;88.70
47338;DHT22;33069;51.970;5.892;2023-12-20T02:04:19;5.70;88.70
47338;DHT22;33069;51.970;5.892;2023-12-20T02:07:07;5.80;88.60
47338;DHT22;33069;51.970;5.892;2023-12-20T02:09:54;5.70;88.40
47338;DHT22;33069;51.970;5.892;2023-12-20T02:12:40;5.80;88.40
47338;DHT22;33069;51.970;5.892;2023-12-20T02:15:26;5.80;88.30
47338;DHT22;33069;51.970;5.892;2023-12-20T02:18:12;5.80;88.20
47338;DHT22;33069;51.970;5.892;2023-12-20T02:21:01;5.70;88.20
47338;DHT22;33069;51.970;5.892;2023-12-20T02:23:47;5.70;88.10
47338;DHT22;33069;51.970;5.892;2023-12-20T02:26:33;5.70;88.10
47338;DHT22;33069;51.970;5.892;2023-12-20T02:29:19;5.80;88.10
47338;DHT22;33069;51.970;5.892;2023-12-20T02:32:05;5.90;88.00
47338;DHT22;33069;51.970;5.892;2023-12-20T02:34:51;5.80;87.80
47338;DHT22;33069;51.970;5.892;2023-12-20T02:37:37;5.90;87.90
47338;DHT22;33069;51.970;5.892;2023-12-20T02:40:23;5.90;87.80
47338;DHT22;33069;51.970;5.892;2023-12-20T02:43:09;6.00;87.80
47338;DHT22;33069;51.970;5.892;2023-12-20T02:45:55;6.10;87.70
47338;DHT22;33069;51.970;5.892;2023-12-20T02:48:41;6.10;87.70
47338;DHT22;33069;51.970;5.892;2023-12-20T02:51:27;6.10;87.70
47338;DHT22;33069;51.970;5.892;2023-12-20T02:54:13;6.00;87.70
47338;DHT22;33069;51.970;5.892;2023-12-20T02:56:59;6.10;87.80
47338;DHT22;33069;51.970;5.892;2023-12-20T02:59:45;6.00;87.80
47338;DHT22;33069;51.970;5.892;2023-12-20T03:02:31;6.00;88.10
47338;DHT22;33069;51.970;5.892;2023-12-20T03:05:17;6.00;88.10
47338;DHT22;33069;51.970;5.892;2023-12-20T03:08:03;6.00;88.30
47338;DHT22;33069;51.970;5.892;2023-12-20T03:10:49;6.00;88.50
47338;DHT22;33069;51.970;5.892;2023-12-20T03:13:35;5.90;88.50
47338;DHT22;33069;51.970;5.892;2023-12-20T03:16:21;6.00;88.60
47338;DHT22;33069;51.970;5.892;2023-12-20T03:19:07;5.90;88.60
47338;DHT22;33069;51.970;5.892;2023-12-20T03:21:53;5.90;88.60
47338;DHT22;33069;51.970;5.892;2023-12-20T03:24:39;6.00;88.60
47338;DHT22;33069;51.970;5.892;2023-12-20T03:27:25;5.90;88.40
47338;DHT22;33069;51.970;5.892;2023-12-20T03:30:11;5.90;88.40
47338;DHT22;33069;51.970;5.892;2023-12-20T03:32:57;6.00;88.40
47338;DHT22;33069;51.970;5.892;2023-12-20T03:35:43;5.80;88.30
47338;DHT22;33069;51.970;5.892;2023-12-20T03:38:29;5.80;88.40
47338;DHT22;33069;51.970;5.892;2023-12-20T03:41:15;5.80;88.40
47338;DHT22;33069;51.970;5.892;2023-12-20T03:44:01;5.80;88.40
47338;DHT22;33069;51.970;5.892;2023-12-20T03:46:47;5.70;88.50
47338;DHT22;33069;51.970;5.892;2023-12-20T03:49:34;5.70;88.50
47338;DHT22;33069;51.970;5.892;2023-12-20T03:52:22;5.80;88.60
47338;DHT22;33069;51.970;5.892;2023-12-20T03:55:08;5.80;88.60
47338;DHT22;33069;51.970;5.892;2023-12-20T03:57:54;5.80;88.50
47338;DHT22;33069;51.970;5.892;2023-12-20T04:00:40;5.80;88.60
47338;DHT22;33069;51.970;5.892;2023-12-20T04:03:26;5.80;88.50
47338;DHT22;33069;51.970;5.892;2023-12-20T04:06:19;5.80;88.50
47338;DHT22;33069;51.970;5.892;2023-12-20T04:09:05;5.80;88.60
47338;DHT22;33069;51.970;5.892;2023-12-20T04:11:51;5.80;88.60
47338;DHT22;33069;51.970;5.892;2023-12-20T04:14:37;5.80;88.60
47338;DHT22;33069;51.970;5.892;2023-12-20T04:17:23;5.80;88.60
47338;DHT22;33069;51.970;5.892;2023-12-20T04:20:09;5.90;88.60
47338;DHT22;33069;51.970;5.892;2023-12-20T04:22:55;5.90;88.50
47338;DHT22;33069;51.970;5.892;2023-12-20T04:25:41;6.00;88.40
47338;DHT22;33069;51.970;5.892;2023-12-20T04:28:27;6.00;88.30
47338;DHT22;33069;51.970;5.892;2023-12-20T04:31:15;6.00;88.20
47338;DHT22;33069;51.970;5.892;2023-12-20T04:34:01;6.00;88.10
47338;DHT22;33069;51.970;5.892;2023-12-20T04:36:47;6.00;88.00
47338;DHT22;33069;51.970;5.892;2023-12-20T04:39:33;6.10;87.90
47338;DHT22;33069;51.970;5.892;2023-12-20T04:42:19;6.10;87.80
47338;DHT22;33069;51.970;5.892;2023-12-20T04:45:06;6.20;87.70
47338;DHT22;33069;51.970;5.892;2023-12-20T04:47:52;6.20;87.40
47338;DHT22;33069;51.970;5.892;2023-12-20T04:50:38;6.30;87.30
47338;DHT22;33069;51.970;5.892;2023-12-20T04:53:24;6.30;87.20
47338;DHT22;33069;51.970;5.892;2023-12-20T04:56:10;6.30;87.10
47338;DHT22;33069;51.970;5.892;2023-12-20T04:58:56;6.30;87.10
47338;DHT22;33069;51.970;5.892;2023-12-20T05:01:42;6.40;87.00
47338;DHT22;33069;51.970;5.892;2023-12-20T05:04:28;6.30;87.00
47338;DHT22;33069;51.970;5.892;2023-12-20T05:07:14;6.30;87.10
47338;DHT22;33069;51.970;5.892;2023-12-20T05:10:00;6.40;87.00
47338;DHT22;33069;51.970;5.892;2023-12-20T05:12:46;6.50;86.80
47338;DHT22;33069;51.970;5.892;2023-12-20T05:15:32;6.50;86.60
47338;DHT22;33069;51.970;5.892;2023-12-20T05:18:18;6.50;86.50
47338;DHT22;33069;51.970;5.892;2023-12-20T05:21:04;6.50;86.30
47338;DHT22;33069;51.970;5.892;2023-12-20T05:23:50;6.60;86.30
47338;DHT22;33069;51.970;5.892;2023-12-20T05:26:36;6.70;86.10
47338;DHT22;33069;51.970;5.892;2023-12-20T05:29:23;6.80;85.70
47338;DHT22;33069;51.970;5.892;2023-12-20T05:32:10;6.80;85.60
47338;DHT22;33069;51.970;5.892;2023-12-20T05:34:56;6.80;85.30
47338;DHT22;33069;51.970;5.892;2023-12-20T05:37:42;6.80;85.20
47338;DHT22;33069;51.970;5.892;2023-12-20T05:40:28;6.80;85.10
47338;DHT22;33069;51.970;5.892;2023-12-20T05:43:14;6.80;85.00
47338;DHT22;33069;51.970;5.892;2023-12-20T05:46:00;6.80;84.90
47338;DHT22;33069;51.970;5.892;2023-12-20T05:48:46;6.80;84.80
47338;DHT22;33069;51.970;5.892;2023-12-20T05:51:32;6.90;84.80
47338;DHT22;33069;51.970;5.892;2023-12-20T05:54:18;6.90;84.70
47338;DHT22;33069;51.970;5.892;2023-12-20T05:57:04;6.90;84.50
47338;DHT22;33069;51.970;5.892;2023-12-20T05:59:50;6.90;84.60
47338;DHT22;33069;51.970;5.892;2023-12-20T06:02:36;6.90;84.50
47338;DHT22;33069;51.970;5.892;2023-12-20T06:05:22;6.90;84.40
47338;DHT22;33069;51.970;5.892;2023-12-20T06:08:08;6.90;84.40
47338;DHT22;33069;51.970;5.892;2023-12-20T06:10:54;6.90;84.40
47338;DHT22;33069;51.970;5.892;2023-12-20T06:13:40;7.00;84.40
47338;DHT22;33069;51.970;5.892;2023-12-20T06:16:26;7.00;84.40
47338;DHT22;33069;51.970;5.892;2023-12-20T06:19:12;7.00;84.40
47338;DHT22;33069;51.970;5.892;2023-12-20T06:21:58;7.00;84.30
47338;DHT22;33069;51.970;5.892;2023-12-20T06:24:44;7.00;84.30
47338;DHT22;33069;51.970;5.892;2023-12-20T06:27:30;7.00;84.20
47338;DHT22;33069;51.970;5.892;2023-12-20T06:30:18;6.90;84.40
47338;DHT22;33069;51.970;5.892;2023-12-20T06:33:04;7.00;84.30
47338;DHT22;33069;51.970;5.892;2023-12-20T06:35:50;7.00;84.10
47338;DHT22;33069;51.970;5.892;2023-12-20T06:38:36;7.00;84.00
47338;DHT22;33069;51.970;5.892;2023-12-20T06:41:22;7.00;83.80
47338;DHT22;33069;51.970;5.892;2023-12-20T06:44:10;7.00;83.80
47338;DHT22;33069;51.970;5.892;2023-12-20T06:46:56;7.00;83.70
47338;DHT22;33069;51.970;5.892;2023-12-20T06:49:42;7.00;83.70
47338;DHT22;33069;51.970;5.892;2023-12-20T06:52:28;7.00;83.80
47338;DHT22;33069;51.970;5.892;2023-12-20T06:55:13;7.00;83.50
47338;DHT22;33069;51.970;5.892;2023-12-20T06:58:01;7.10;83.40
47338;DHT22;33069;51.970;5.892;2023-12-20T07:00:47;7.10;83.50
47338;DHT22;33069;51.970;5.892;2023-12-20T07:03:33;7.00;83.40
47338;DHT22;33069;51.970;5.892;2023-12-20T07:06:19;7.10;83.40
47338;DHT22;33069;51.970;5.892;2023-12-20T07:09:06;7.10;83.30
47338;DHT22;33069;51.970;5.892;2023-12-20T07:11:52;7.10;83.30
47338;DHT22;33069;51.970;5.892;2023-12-20T07:14:38;7.10;83.40
47338;DHT22;33069;51.970;5.892;2023-12-20T07:17:24;7.10;83.30
47338;DHT22;33069;51.970;5.892;2023-12-20T07:20:11;7.10;83.50
47338;DHT22;33069;51.970;5.892;2023-12-20T07:22:57;7.10;83.40
47338;DHT22;33069;51.970;5.892;2023-12-20T07:25:43;7.10;83.40
47338;DHT22;33069;51.970;5.892;2023-12-20T07:28:28;7.10;83.40
47338;DHT22;33069;51.970;5.892;2023-12-20T07:31:15;7.10;83.60
47338;DHT22;33069;51.970;5.892;2023-12-20T07:34:02;7.10;83.60
47338;DHT22;33069;51.970;5.892;2023-12-20T07:36:48;7.10;83.50
47338;DHT22;33069;51.970;5.892;2023-12-20T07:39:33;7.10;83.50
47338;DHT22;33069;51.970;5.892;2023-12-20T07:42:19;7.20;83.50
47338;DHT22;33069;51.970;5.892;2023-12-20T07:45:07;7.20;83.50
47338;DHT22;33069;51.970;5.892;2023-12-20T07:47:54;7.20;83.50
47338;DHT22;33069;51.970;5.892;2023-12-20T07:50:40;7.20;83.60
47338;DHT22;33069;51.970;5.892;2023-12-20T07:53:26;7.20;83.80
47338;DHT22;33069;51.970;5.892;2023-12-20T07:56:16;7.20;83.90
47338;DHT22;33069;51.970;5.892;2023-12-20T07:59:03;7.20;83.80
47338;DHT22;33069;51.970;5.892;2023-12-20T08:01:49;7.20;83.70
47338;DHT22;33069;51.970;5.892;2023-12-20T08:04:35;7.20;83.90
47338;DHT22;33069;51.970;5.892;2023-12-20T08:07:21;7.20;83.80
47338;DHT22;33069;51.970;5.892;2023-12-20T08:10:07;7.30;83.70
47338;DHT22;33069;51.970;5.892;2023-12-20T08:12:53;7.30;83.70
47338;DHT22;33069;51.970;5.892;2023-12-20T08:15:39;7.20;83.80
47338;DHT22;33069;51.970;5.892;2023-12-20T08:18:25;7.30;83.70
47338;DHT22;33069;51.970;5.892;2023-12-20T08:21:11;7.30;83.80
47338;DHT22;33069;51.970;5.892;2023-12-20T08:23:57;7.30;83.70
47338;DHT22;33069;51.970;5.892;2023-12-20T08:26:43;7.30;83.30
47338;DHT22;33069;51.970;5.892;2023-12-20T08:29:29;7.40;83.40
47338;DHT22;33069;51.970;5.892;2023-12-20T08:32:15;7.30;83.30
47338;DHT22;33069;51.970;5.892;2023-12-20T08:35:01;7.40;83.30
47338;DHT22;33069;51.970;5.892;2023-12-20T08:37:47;7.30;83.40
47338;DHT22;33069;51.970;5.892;2023-12-20T08:40:33;7.40;83.30
47338;DHT22;33069;51.970;5.892;2023-12-20T08:43:19;7.40;83.10
47338;DHT22;33069;51.970;5.892;2023-12-20T08:46:05;7.30;83.40
47338;DHT22;33069;51.970;5.892;2023-12-20T08:48:51;7.40;83.40
47338;DHT22;33069;51.970;5.892;2023-12-20T08:51:37;7.40;83.40
47338;DHT22;33069;51.970;5.892;2023-12-20T08:54:26;7.40;83.40
47338;DHT22;33069;51.970;5.892;2023-12-20T08:57:11;7.40;83.50
47338;DHT22;33069;51.970;5.892;2023-12-20T08:59:58;7.40;83.70
47338;DHT22;33069;51.970;5.892;2023-12-20T09:02:43;7.40;83.90
47338;DHT22;33069;51.970;5.892;2023-12-20T09:05:29;7.40;84.10
47338;DHT22;33069;51.970;5.892;2023-12-20T09:08:16;7.40;84.00
47338;DHT22;33069;51.970;5.892;2023-12-20T09:11:02;7.40;84.10
47338;DHT22;33069;51.970;5.892;2023-12-20T09:13:47;7.40;84.50
47338;DHT22;33069;51.970;5.892;2023-12-20T09:16:34;7.40;84.60
47338;DHT22;33069;51.970;5.892;2023-12-20T09:19:19;7.40;84.70
47338;DHT22;33069;51.970;5.892;2023-12-20T09:22:06;7.40;85.10
47338;DHT22;33069;51.970;5.892;2023-12-20T09:24:52;7.40;85.40
47338;DHT22;33069;51.970;5.892;2023-12-20T09:27:38;7.30;85.90
47338;DHT22;33069;51.970;5.892;2023-12-20T09:30:24;7.20;86.30
47338;DHT22;33069;51.970;5.892;2023-12-20T09:33:10;7.20;86.70
47338;DHT22;33069;51.970;5.892;2023-12-20T09:35:56;7.20;86.80
47338;DHT22;33069;51.970;5.892;2023-12-20T09:38:42;7.20;87.20
47338;DHT22;33069;51.970;5.892;2023-12-20T09:41:32;7.10;87.50
47338;DHT22;33069;51.970;5.892;2023-12-20T09:44:21;7.10;87.70
47338;DHT22;33069;51.970;5.892;2023-12-20T09:47:10;7.10;88.00
47338;DHT22;33069;51.970;5.892;2023-12-20T09:49:56;7.10;88.20
47338;DHT22;33069;51.970;5.892;2023-12-20T09:52:43;7.00;88.40
47338;DHT22;33069;51.970;5.892;2023-12-20T09:55:32;7.00;88.60
47338;DHT22;33069;51.970;5.892;2023-12-20T09:58:18;7.00;88.60
47338;DHT22;33069;51.970;5.892;2023-12-20T10:01:05;7.10;88.60
47338;DHT22;33069;51.970;5.892;2023-12-20T10:03:54;7.10;88.60
47338;DHT22;33069;51.970;5.892;2023-12-20T10:06:43;7.10;88.50
47338;DHT22;33069;51.970;5.892;2023-12-20T10:09:31;7.10;88.40
47338;DHT22;33069;51.970;5.892;2023-12-20T10:12:18;7.10;88.40
47338;DHT22;33069;51.970;5.892;2023-12-20T10:15:04;7.20;88.20
47338;DHT22;33069;51.970;5.892;2023-12-20T10:17:50;7.20;88.00
47338;DHT22;33069;51.970;5.892;2023-12-20T10:20:36;7.30;87.80
47338;DHT22;33069;51.970;5.892;2023-12-20T10:23:22;7.30;87.70
47338;DHT22;33069;51.970;5.892;2023-12-20T10:26:08;7.20;87.80
47338;DHT22;33069;51.970;5.892;2023-12-20T10:29:01;7.20;87.80
47338;DHT22;33069;51.970;5.892;2023-12-20T10:31:50;7.20;87.90
47338;DHT22;33069;51.970;5.892;2023-12-20T10:34:36;7.30;87.80
47338;DHT22;33069;51.970;5.892;2023-12-20T10:37:22;7.40;87.80
47338;DHT22;33069;51.970;5.892;2023-12-20T10:40:09;7.40;87.70
47338;DHT22;33069;51.970;5.892;2023-12-20T10:42:56;7.50;87.50
47338;DHT22;33069;51.970;5.892;2023-12-20T10:45:43;7.50;87.20
47338;DHT22;33069;51.970;5.892;2023-12-20T10:48:30;7.50;87.00
47338;DHT22;33069;51.970;5.892;2023-12-20T10:51:18;7.60;87.00
47338;DHT22;33069;51.970;5.892;2023-12-20T10:54:04;7.50;87.10
47338;DHT22;33069;51.970;5.892;2023-12-20T10:56:52;7.50;87.10
47338;DHT22;33069;51.970;5.892;2023-12-20T10:59:38;7.40;87.30
47338;DHT22;33069;51.970;5.892;2023-12-20T11:02:25;7.50;87.40
47338;DHT22;33069;51.970;5.892;2023-12-20T11:05:19;7.40;87.50
47338;DHT22;33069;51.970;5.892;2023-12-20T11:08:11;7.40;87.50
47338;DHT22;33069;51.970;5.892;2023-12-20T11:11:12;7.40;87.60
47338;DHT22;33069;51.970;5.892;2023-12-20T11:14:03;7.30;87.70
47338;DHT22;33069;51.970;5.892;2023-12-20T11:16:50;7.40;87.70
47338;DHT22;33069;51.970;5.892;2023-12-20T11:22:40;7.40;87.70
47338;DHT22;33069;51.970;5.892;2023-12-20T11:25:47;7.40;87.70
47338;DHT22;33069;51.970;5.892;2023-12-20T11:28:34;7.50;87.90
47338;DHT22;33069;51.970;5.892;2023-12-20T11:31:20;7.40;87.80
47338;DHT22;33069;51.970;5.892;2023-12-20T11:34:17;7.50;87.80
47338;DHT22;33069;51.970;5.892;2023-12-20T11:37:03;7.60;87.70
47338;DHT22;33069;51.970;5.892;2023-12-20T11:39:56;7.70;87.60
47338;DHT22;33069;51.970;5.892;2023-12-20T11:42:44;7.70;87.40
47338;DHT22;33069;51.970;5.892;2023-12-20T11:45:31;7.70;87.30
47338;DHT22;33069;51.970;5.892;2023-12-20T11:48:18;7.80;87.30
47338;DHT22;33069;51.970;5.892;2023-12-20T11:51:14;7.90;87.30
47338;DHT22;33069;51.970;5.892;2023-12-20T11:54:00;7.90;87.10
47338;DHT22;33069;51.970;5.892;2023-12-20T11:56:46;7.90;87.00
47338;DHT22;33069;51.970;5.892;2023-12-20T11:59:33;8.00;86.90
47338;DHT22;33069;51.970;5.892;2023-12-20T12:02:19;8.00;86.80
47338;DHT22;33069;51.970;5.892;2023-12-20T12:05:05;8.10;86.80
47338;DHT22;33069;51.970;5.892;2023-12-20T12:07:51;8.10;86.60
47338;DHT22;33069;51.970;5.892;2023-12-20T12:10:37;8.10;86.40
47338;DHT22;33069;51.970;5.892;2023-12-20T12:13:23;8.20;86.00
47338;DHT22;33069;51.970;5.892;2023-12-20T12:16:17;8.20;85.40
47338;DHT22;33069;51.970;5.892;2023-12-20T12:19:04;8.40;83.80
47338;DHT22;33069;51.970;5.892;2023-12-20T12:21:51;8.50;82.10
47338;DHT22;33069;51.970;5.892;2023-12-20T12:24:49;8.60;81.30
47338;DHT22;33069;51.970;5.892;2023-12-20T12:27:35;8.70;80.60
47338;DHT22;33069;51.970;5.892;2023-12-20T12:30:21;8.70;80.50
47338;DHT22;33069;51.970;5.892;2023-12-20T12:33:07;8.70;80.30
47338;DHT22;33069;51.970;5.892;2023-12-20T12:35:54;8.80;80.40
47338;DHT22;33069;51.970;5.892;2023-12-20T12:38:41;8.70;81.10
47338;DHT22;33069;51.970;5.892;2023-12-20T12:41:29;8.80;81.20
47338;DHT22;33069;51.970;5.892;2023-12-20T12:44:15;8.80;81.50
47338;DHT22;33069;51.970;5.892;2023-12-20T12:47:01;8.70;82.00
47338;DHT22;33069;51.970;5.892;2023-12-20T12:49:51;8.70;82.30
47338;DHT22;33069;51.970;5.892;2023-12-20T12:52:38;8.60;83.10
47338;DHT22;33069;51.970;5.892;2023-12-20T12:55:24;8.60;83.70
47338;DHT22;33069;51.970;5.892;2023-12-20T12:58:11;8.50;84.00
47338;DHT22;33069;51.970;5.892;2023-12-20T13:00:57;8.50;84.20
47338;DHT22;33069;51.970;5.892;2023-12-20T13:03:43;8.50;84.00
47338;DHT22;33069;51.970;5.892;2023-12-20T13:06:29;8.60;83.70
47338;DHT22;33069;51.970;5.892;2023-12-20T13:09:15;8.60;83.30
47338;DHT22;33069;51.970;5.892;2023-12-20T13:12:01;8.60;83.20
47338;DHT22;33069;51.970;5.892;2023-12-20T13:14:49;8.70;82.90
47338;DHT22;33069;51.970;5.892;2023-12-20T13:17:35;8.70;83.00
47338;DHT22;33069;51.970;5.892;2023-12-20T13:20:21;8.70;83.00
47338;DHT22;33069;51.970;5.892;2023-12-20T13:23:07;8.70;83.10
47338;DHT22;33069;51.970;5.892;2023-12-20T13:25:53;8.70;83.20
47338;DHT22;33069;51.970;5.892;2023-12-20T13:28:39;8.70;83.20
47338;DHT22;33069;51.970;5.892;2023-12-20T13:31:25;8.70;83.30
47338;DHT22;33069;51.970;5.892;2023-12-20T13:34:11;8.70;82.90
47338;DHT22;33069;51.970;5.892;2023-12-20T13:36:58;8.70;82.50
47338;DHT22;33069;51.970;5.892;2023-12-20T13:39:44;8.70;82.30
47338;DHT22;33069;51.970;5.892;2023-12-20T13:42:30;8.70;82.00
47338;DHT22;33069;51.970;5.892;2023-12-20T13:45:16;8.70;82.00
47338;DHT22;33069;51.970;5.892;2023-12-20T13:48:02;8.70;81.90
47338;DHT22;33069;51.970;5.892;2023-12-20T13:50:48;8.70;81.80
47338;DHT22;33069;51.970;5.892;2023-12-20T13:53:34;8.80;82.00
47338;DHT22;33069;51.970;5.892;2023-12-20T13:56:20;8.80;81.80
47338;DHT22;33069;51.970;5.892;2023-12-20T13:59:06;8.70;82.10
47338;DHT22;33069;51.970;5.892;2023-12-20T14:01:52;8.70;82.10
47338;DHT22;33069;51.970;5.892;2023-12-20T14:04:38;8.80;81.90
47338;DHT22;33069;51.970;5.892;2023-12-20T14:07:27;8.70;81.80
47338;DHT22;33069;51.970;5.892;2023-12-20T14:10:16;8.80;81.70
47338;DHT22;33069;51.970;5.892;2023-12-20T14:13:02;8.70;81.90
47338;DHT22;33069;51.970;5.892;2023-12-20T14:15:48;8.80;81.80
47338;DHT22;33069;51.970;5.892;2023-12-20T14:18:35;8.80;81.70
47338;DHT22;33069;51.970;5.892;2023-12-20T14:21:21;8.70;81.50
47338;DHT22;33069;51.970;5.892;2023-12-20T14:24:07;8.70;81.40
47338;DHT22;33069;51.970;5.892;2023-12-20T14:26:53;8.80;81.00
47338;DHT22;33069;51.970;5.892;2023-12-20T14:29:39;8.80;81.10
47338;DHT22;33069;51.970;5.892;2023-12-20T14:32:25;8.80;81.30
47338;DHT22;33069;51.970;5.892;2023-12-20T14:35:13;8.80;80.90
47338;DHT22;33069;51.970;5.892;2023-12-20T14:37:59;8.80;80.90
47338;DHT22;33069;51.970;5.892;2023-12-20T14:40:45;8.80;80.60
47338;DHT22;33069;51.970;5.892;2023-12-20T14:43:31;8.80;80.60
47338;DHT22;33069;51.970;5.892;2023-12-20T14:46:17;8.80;80.70
47338;DHT22;33069;51.970;5.892;2023-12-20T14:49:05;8.80;81.00
47338;DHT22;33069;51.970;5.892;2023-12-20T14:51:51;8.80;80.80
47338;DHT22;33069;51.970;5.892;2023-12-20T14:54:37;8.90;80.90
47338;DHT22;33069;51.970;5.892;2023-12-20T14:57:23;8.80;81.00
47338;DHT22;33069;51.970;5.892;2023-12-20T15:00:09;8.80;81.10
47338;DHT22;33069;51.970;5.892;2023-12-20T15:02:55;8.80;80.90
47338;DHT22;33069;51.970;5.892;2023-12-20T15:05:41;8.80;81.00
47338;DHT22;33069;51.970;5.892;2023-12-20T15:08:27;8.80;81.30
47338;DHT22;33069;51.970;5.892;2023-12-20T15:11:13;8.80;81.20
47338;DHT22;33069;51.970;5.892;2023-12-20T15:13:59;8.70;81.30
47338;DHT22;33069;51.970;5.892;2023-12-20T15:16:47;8.70;81.50
47338;DHT22;33069;51.970;5.892;2023-12-20T15:19:33;8.80;81.20
47338;DHT22;33069;51.970;5.892;2023-12-20T15:22:19;8.80;81.40
47338;DHT22;33069;51.970;5.892;2023-12-20T15:25:05;8.80;81.30
47338;DHT22;33069;51.970;5.892;2023-12-20T15:27:53;8.80;81.40
47338;DHT22;33069;51.970;5.892;2023-12-20T15:30:39;8.80;81.80
47338;DHT22;33069;51.970;5.892;2023-12-20T15:33:25;8.70;82.60
47338;DHT22;33069;51.970;5.892;2023-12-20T15:36:11;8.70;82.80
47338;DHT22;33069;51.970;5.892;2023-12-20T15:38:57;8.70;83.00
47338;DHT22;33069;51.970;5.892;2023-12-20T15:41:43;8.70;83.10
47338;DHT22;33069;51.970;5.892;2023-12-20T15:44:29;8.70;83.60
47338;DHT22;33069;51.970;5.892;2023-12-20T15:47:15;8.70;83.90
47338;DHT22;33069;51.970;5.892;2023-12-20T15:50:02;8.60;84.20
47338;DHT22;33069;51.970;5.892;2023-12-20T15:52:48;8.60;84.50
47338;DHT22;33069;51.970;5.892;2023-12-20T15:55:34;8.50;84.70
47338;DHT22;33069;51.970;5.892;2023-12-20T15:58:20;8.50;85.00
47338;DHT22;33069;51.970;5.892;2023-12-20T16:01:05;8.40;85.20
47338;DHT22;33069;51.970;5.892;2023-12-20T16:03:51;8.40;85.50
47338;DHT22;33069;51.970;5.892;2023-12-20T16:06:37;8.30;86.00
47338;DHT22;33069;51.970;5.892;2023-12-20T16:09:23;8.20;86.40
47338;DHT22;33069;51.970;5.892;2023-12-20T16:12:09;8.20;86.70
47338;DHT22;33069;51.970;5.892;2023-12-20T16:14:55;8.20;87.00
47338;DHT22;33069;51.970;5.892;2023-12-20T16:17:42;8.20;87.20
47338;DHT22;33069;51.970;5.892;2023-12-20T16:20:28;8.20;87.30
47338;DHT22;33069;51.970;5.892;2023-12-20T16:23:14;8.10;87.40
47338;DHT22;33069;51.970;5.892;2023-12-20T16:25:59;8.20;87.50
47338;DHT22;33069;51.970;5.892;2023-12-20T16:28:45;8.20;87.50
47338;DHT22;33069;51.970;5.892;2023-12-20T16:31:31;8.10;87.60
47338;DHT22;33069;51.970;5.892;2023-12-20T16:34:17;8.10;87.70
47338;DHT22;33069;51.970;5.892;2023-12-20T16:37:03;8.10;87.70
47338;DHT22;33069;51.970;5.892;2023-12-20T16:39:50;8.10;87.80
47338;DHT22;33069;51.970;5.892;2023-12-20T16:42:36;8.10;87.70
47338;DHT22;33069;51.970;5.892;2023-12-20T16:45:22;8.10;87.80
47338;DHT22;33069;51.970;5.892;2023-12-20T16:48:08;8.10;87.90
47338;DHT22;33069;51.970;5.892;2023-12-20T16:50:54;8.10;87.90
47338;DHT22;33069;51.970;5.892;2023-12-20T16:53:40;8.10;87.90
47338;DHT22;33069;51.970;5.892;2023-12-20T16:56:26;8.10;87.80
47338;DHT22;33069;51.970;5.892;2023-12-20T16:59:12;8.20;87.80
47338;DHT22;33069;51.970;5.892;2023-12-20T17:01:58;8.10;87.80
47338;DHT22;33069;51.970;5.892;2023-12-20T17:04:47;8.10;87.80
47338;DHT22;33069;51.970;5.892;2023-12-20T17:07:34;8.20;87.80
47338;DHT22;33069;51.970;5.892;2023-12-20T17:10:21;8.20;87.80
47338;DHT22;33069;51.970;5.892;2023-12-20T17:13:07;8.20;87.70
47338;DHT22;33069;51.970;5.892;2023-12-20T17:15:53;8.20;87.60
47338;DHT22;33069;51.970;5.892;2023-12-20T17:18:39;8.20;87.50
47338;DHT22;33069;51.970;5.892;2023-12-20T17:21:25;8.20;87.40
47338;DHT22;33069;51.970;5.892;2023-12-20T17:24:11;8.20;87.50
47338;DHT22;33069;51.970;5.892;2023-12-20T17:26:58;8.30;87.50
47338;DHT22;33069;51.970;5.892;2023-12-20T17:29:44;8.30;87.50
47338;DHT22;33069;51.970;5.892;2023-12-20T17:32:31;8.20;87.60
47338;DHT22;33069;51.970;5.892;2023-12-20T17:35:17;8.20;87.80
47338;DHT22;33069;51.970;5.892;2023-12-20T17:38:04;8.20;88.10
47338;DHT22;33069;51.970;5.892;2023-12-20T17:40:50;8.20;88.50
47338;DHT22;33069;51.970;5.892;2023-12-20T17:43:36;8.10;88.60
47338;DHT22;33069;51.970;5.892;2023-12-20T17:46:22;8.10;88.90
47338;DHT22;33069;51.970;5.892;2023-12-20T17:49:08;8.10;89.10
47338;DHT22;33069;51.970;5.892;2023-12-20T17:51:54;8.10;89.20